createdAt,value
2018-07-21T00:00:39.661Z,6.07
2018-07-21T00:03:44.034Z,4.47
2018-07-21T00:06:48.404Z,7.17
2018-07-21T00:09:52.709Z,4.93
2018-07-21T00:12:57.105Z,4.53
2018-07-21T00:16:02.419Z,4.50
2018-07-21T00:19:06.965Z,2.87
2018-07-21T00:22:11.252Z,2.87
2018-07-21T00:25:15.674Z,3.60
2018-07-21T00:28:19.995Z,3.30
2018-07-21T00:31:24.297Z,5.37
2018-07-21T00:34:28.608Z,4.87
2018-07-21T00:37:32.875Z,2.63
2018-07-21T00:40:37.167Z,3.83
2018-07-21T00:43:41.447Z,4.20
2018-07-21T00:46:45.855Z,4.23
2018-07-21T00:49:50.293Z,3.20
2018-07-21T00:52:54.784Z,10.53
2018-07-21T00:55:59.098Z,4.80
2018-07-21T00:59:03.508Z,8.27
2018-07-21T01:02:07.852Z,4.40
2018-07-21T01:05:12.243Z,9.20
2018-07-21T01:08:16.654Z,5.30
2018-07-21T01:11:20.973Z,3.87
2018-07-21T01:14:25.420Z,3.60
2018-07-21T01:17:29.977Z,3.63
2018-07-21T01:20:34.363Z,4.03
2018-07-21T01:23:38.801Z,6.13
2018-07-21T01:26:43.212Z,21.50
2018-07-21T01:29:47.555Z,12.73
2018-07-21T01:32:52.048Z,23.27
2018-07-21T01:35:56.483Z,17.33
2018-07-21T01:39:00.959Z,9.13
2018-07-21T01:42:05.332Z,9.57
2018-07-21T01:45:09.733Z,5.77
2018-07-21T01:48:14.135Z,6.80
2018-07-21T01:51:18.590Z,6.23
2018-07-21T01:54:23.026Z,25.43
2018-07-21T01:57:27.578Z,24.60
2018-07-21T02:00:31.871Z,17.73
2018-07-21T02:03:36.375Z,9.27
2018-07-21T02:06:40.768Z,9.53
2018-07-21T02:09:45.639Z,10.00
2018-07-21T02:12:49.947Z,3.63
2018-07-21T02:15:54.249Z,6.37
2018-07-21T02:18:58.793Z,6.43
2018-07-21T02:22:03.248Z,4.57
2018-07-21T02:25:07.988Z,6.37
2018-07-21T02:28:12.381Z,6.10
2018-07-21T02:31:16.977Z,7.70
2018-07-21T02:34:21.240Z,3.70
2018-07-21T02:37:25.532Z,4.50
2018-07-21T02:40:29.903Z,5.00
2018-07-21T02:43:34.214Z,5.50
2018-07-21T02:46:38.530Z,4.77
2018-07-21T02:49:43.067Z,4.17
2018-07-21T02:52:47.487Z,7.50
2018-07-21T02:55:51.883Z,5.43
2018-07-21T02:58:56.636Z,5.43
2018-07-21T03:02:01.187Z,7.47
2018-07-21T03:05:05.776Z,7.33
2018-07-21T03:08:10.193Z,7.17
2018-07-21T03:11:14.811Z,7.40
2018-07-21T03:14:19.461Z,7.43
2018-07-21T03:17:23.892Z,12.03
2018-07-21T03:20:28.361Z,11.30
2018-07-21T03:23:32.713Z,9.00
2018-07-21T03:26:37.044Z,8.53
2018-07-21T03:29:41.453Z,9.40
2018-07-21T03:32:46.145Z,22.13
2018-07-21T03:35:50.661Z,22.83
2018-07-21T03:38:55.080Z,24.07
2018-07-21T03:41:59.598Z,21.10
2018-07-21T03:45:04.134Z,15.17
2018-07-21T03:48:08.552Z,9.83
2018-07-21T03:51:12.993Z,11.23
2018-07-21T03:54:17.351Z,9.77
2018-07-21T03:57:21.541Z,6.30
2018-07-21T04:00:25.934Z,5.43
2018-07-21T04:03:30.412Z,5.57
2018-07-21T04:06:34.796Z,6.13
2018-07-21T04:09:39.206Z,7.63
2018-07-21T04:12:43.829Z,6.53
2018-07-21T04:15:48.357Z,5.87
2018-07-21T04:18:52.835Z,4.87
2018-07-21T04:21:57.295Z,6.33
2018-07-21T04:25:01.629Z,4.90
2018-07-21T04:28:06.128Z,6.33
2018-07-21T04:31:10.453Z,6.87
2018-07-21T04:34:14.841Z,7.30
2018-07-21T04:37:19.266Z,6.03
2018-07-21T04:40:23.745Z,5.30
2018-07-21T04:43:28.243Z,8.23
2018-07-21T04:46:32.675Z,4.57
2018-07-21T04:49:37.035Z,6.80
2018-07-21T04:52:41.509Z,7.67
2018-07-21T04:55:45.931Z,8.27
2018-07-21T04:58:50.323Z,4.97
2018-07-21T05:01:54.643Z,5.10
2018-07-21T05:04:59.077Z,5.20
2018-07-21T05:08:03.855Z,5.97
2018-07-21T05:11:08.320Z,6.97
2018-07-21T05:14:12.605Z,6.30
2018-07-21T05:17:16.954Z,5.67
2018-07-21T05:20:21.310Z,5.67
2018-07-21T05:23:25.709Z,4.20
2018-07-21T05:26:30.045Z,7.63
2018-07-21T05:29:34.581Z,4.30
2018-07-21T05:32:38.923Z,4.60
2018-07-21T05:35:43.419Z,5.00
2018-07-21T05:38:48.032Z,4.57
2018-07-21T05:41:52.578Z,5.20
2018-07-21T05:44:58.357Z,4.93
2018-07-21T05:48:03.015Z,4.63
2018-07-21T05:51:07.650Z,5.10
2018-07-21T05:54:12.345Z,5.00
2018-07-21T05:57:16.885Z,4.30
2018-07-21T06:00:21.359Z,5.13
2018-07-21T06:03:25.945Z,4.63
2018-07-21T06:06:30.379Z,5.50
2018-07-21T06:09:34.811Z,4.53
2018-07-21T06:12:39.386Z,5.00
2018-07-21T06:15:43.807Z,4.03
2018-07-21T06:18:48.370Z,6.80
2018-07-21T06:21:52.801Z,5.40
2018-07-21T06:24:57.242Z,4.47
2018-07-21T06:28:01.628Z,7.07
2018-07-21T06:31:06.134Z,4.20
2018-07-21T06:34:10.732Z,4.77
2018-07-21T06:37:15.152Z,4.77
2018-07-21T06:40:19.681Z,7.00
2018-07-21T06:43:24.202Z,4.30
2018-07-21T06:46:28.530Z,5.47
2018-07-21T06:49:32.925Z,3.77
2018-07-21T06:52:37.509Z,3.63
2018-07-21T06:55:42.048Z,4.97
2018-07-21T06:58:46.462Z,4.60
2018-07-21T07:01:51.253Z,4.80
2018-07-21T07:04:55.575Z,5.77
2018-07-21T07:08:00.138Z,4.07
2018-07-21T07:11:04.755Z,5.33
2018-07-21T07:14:09.195Z,4.13
2018-07-21T07:17:14.095Z,4.40
2018-07-21T07:20:18.449Z,5.93
2018-07-21T07:23:22.818Z,6.03
2018-07-21T07:26:27.268Z,4.43
2018-07-21T07:29:34.742Z,3.97
2018-07-21T07:32:39.121Z,5.93
2018-07-21T07:35:43.480Z,7.13
2018-07-21T07:38:47.935Z,4.50
2018-07-21T07:41:52.372Z,4.23
2018-07-21T07:44:56.772Z,6.27
2018-07-21T07:48:01.086Z,3.63
2018-07-21T07:51:05.592Z,4.77
2018-07-21T07:54:09.938Z,5.23
2018-07-21T07:57:14.341Z,9.83
2018-07-21T08:00:18.764Z,4.23
2018-07-21T08:03:23.080Z,5.83
2018-07-21T08:06:27.339Z,4.87
2018-07-21T08:09:31.727Z,5.03
2018-07-21T08:12:36.183Z,4.33
2018-07-21T08:15:40.476Z,5.97
2018-07-21T08:18:44.757Z,5.90
2018-07-21T08:21:49.128Z,5.57
2018-07-21T08:24:53.590Z,4.57
2018-07-21T08:27:58.297Z,5.17
2018-07-21T08:31:02.781Z,7.47
2018-07-21T08:34:07.213Z,4.17
2018-07-21T08:37:11.662Z,4.27
2018-07-21T08:40:16.033Z,4.00
2018-07-21T08:43:20.293Z,4.40
2018-07-21T08:46:24.749Z,6.37
2018-07-21T08:49:29.249Z,5.10
2018-07-21T08:52:33.620Z,6.53
2018-07-21T08:55:38.178Z,5.80
2018-07-21T08:58:42.504Z,5.47
2018-07-21T09:01:46.822Z,6.03
2018-07-21T09:04:51.116Z,4.30
2018-07-21T09:07:55.474Z,5.20
2018-07-21T09:10:59.852Z,4.87
2018-07-21T09:14:04.179Z,5.70
2018-07-21T09:17:08.489Z,4.47
2018-07-21T09:20:12.781Z,4.70
2018-07-21T09:23:17.128Z,5.37
2018-07-21T09:26:21.428Z,4.77
2018-07-21T09:29:25.902Z,5.33
2018-07-21T09:32:30.209Z,5.37
2018-07-21T09:35:34.506Z,5.13
2018-07-21T09:38:38.933Z,6.87
2018-07-21T09:41:43.257Z,4.10
2018-07-21T09:44:47.581Z,4.47
2018-07-21T09:47:52.037Z,8.07
2018-07-21T09:50:56.280Z,4.50
2018-07-21T09:54:00.680Z,6.23
2018-07-21T09:57:05.149Z,4.20
2018-07-21T10:00:11.519Z,5.33
2018-07-21T10:03:16.021Z,3.80
2018-07-21T10:06:20.404Z,4.33
2018-07-21T10:09:24.772Z,4.57
2018-07-21T10:12:29.716Z,5.47
2018-07-21T10:15:34.198Z,4.70
2018-07-21T10:18:38.603Z,4.73
2018-07-21T10:21:43.101Z,5.23
2018-07-21T10:24:53.021Z,5.27
2018-07-21T10:28:02.810Z,4.60
2018-07-21T10:31:07.300Z,6.27
2018-07-21T10:34:12.347Z,5.97
2018-07-21T10:37:16.762Z,6.83
2018-07-21T10:40:21.132Z,7.90
2018-07-21T10:43:25.492Z,5.40
2018-07-21T10:46:30.016Z,7.73
2018-07-21T10:49:34.472Z,8.47
2018-07-21T10:52:39.048Z,5.23
2018-07-21T10:55:43.410Z,5.27
2018-07-21T10:58:47.873Z,7.23
2018-07-21T11:01:52.252Z,5.27
2018-07-21T11:04:56.729Z,8.17
2018-07-21T11:08:01.212Z,4.70
2018-07-21T11:11:05.536Z,4.60
2018-07-21T11:14:09.869Z,4.50
2018-07-21T11:17:14.278Z,5.67
2018-07-21T11:20:18.855Z,7.83
2018-07-21T11:23:23.159Z,8.10
2018-07-21T11:26:27.619Z,5.83
2018-07-21T11:29:31.883Z,5.37
2018-07-21T11:32:36.233Z,5.80
2018-07-21T11:35:40.649Z,9.63
2018-07-21T11:38:45.035Z,5.93
2018-07-21T11:41:49.467Z,5.07
2018-07-21T11:44:53.871Z,5.90
2018-07-21T11:47:58.239Z,4.97
2018-07-21T11:51:03.141Z,8.90
2018-07-21T11:54:07.490Z,7.07
2018-07-21T11:57:11.919Z,7.90
2018-07-21T12:00:16.270Z,7.23
2018-07-21T12:03:21.028Z,6.23
2018-07-21T12:06:25.417Z,5.00
2018-07-21T12:09:29.725Z,5.17
2018-07-21T12:12:34.105Z,6.57
2018-07-21T12:15:38.503Z,6.10
2018-07-21T12:18:42.760Z,6.80
2018-07-21T12:21:47.231Z,6.33
2018-07-21T12:24:51.756Z,4.90
2018-07-21T12:27:56.244Z,10.03
2018-07-21T12:31:00.604Z,5.27
2018-07-21T12:34:04.935Z,5.60
2018-07-21T12:37:09.411Z,5.43
2018-07-21T12:40:13.765Z,7.03
2018-07-21T12:43:18.143Z,5.00
2018-07-21T12:46:22.720Z,5.70
2018-07-21T12:49:27.143Z,5.90
2018-07-21T12:52:31.568Z,5.80
2018-07-21T12:55:35.931Z,9.40
2018-07-21T12:58:40.297Z,5.83
2018-07-21T13:01:44.588Z,5.83
2018-07-21T13:04:49.085Z,7.10
2018-07-21T13:07:53.477Z,7.10
2018-07-21T13:10:57.964Z,4.50
2018-07-21T13:14:02.352Z,5.00
2018-07-21T13:17:06.685Z,5.57
2018-07-21T13:20:11.098Z,5.00
2018-07-21T13:23:15.565Z,6.47
2018-07-21T13:26:19.871Z,5.33
2018-07-21T13:29:24.287Z,5.90
2018-07-21T13:32:28.697Z,5.57
2018-07-21T13:35:33.156Z,6.80
2018-07-21T13:38:37.555Z,4.97
2018-07-21T13:41:41.986Z,4.90
2018-07-21T13:44:46.439Z,8.40
2018-07-21T13:47:50.977Z,6.50
2018-07-21T13:50:55.341Z,5.80
2018-07-21T13:53:59.898Z,5.67
2018-07-21T13:57:04.122Z,5.27
2018-07-21T14:00:08.423Z,5.40
2018-07-21T14:03:12.962Z,4.93
2018-07-21T14:06:17.443Z,4.97
2018-07-21T14:09:21.855Z,4.70
2018-07-21T14:12:26.198Z,6.30
2018-07-21T14:15:30.458Z,4.33
2018-07-21T14:18:35.002Z,5.73
2018-07-21T14:21:39.331Z,6.90
2018-07-21T14:24:43.996Z,7.57
2018-07-21T14:27:48.293Z,4.80
2018-07-21T14:30:52.832Z,4.63
2018-07-21T14:33:57.503Z,10.63
2018-07-21T14:37:02.211Z,7.40
2018-07-21T14:40:06.541Z,4.93
2018-07-21T14:43:11.082Z,5.50
2018-07-21T14:46:15.578Z,5.43
2018-07-21T14:49:20.080Z,6.60
2018-07-21T14:52:24.319Z,5.27
2018-07-21T14:55:28.740Z,6.90
2018-07-21T14:58:33.122Z,4.57
2018-07-21T15:01:37.622Z,5.37
2018-07-21T15:04:41.988Z,5.47
2018-07-21T15:07:46.293Z,6.90
2018-07-21T15:10:50.624Z,5.27
2018-07-21T15:13:54.932Z,5.97
2018-07-21T15:16:59.256Z,5.30
2018-07-21T15:20:03.760Z,6.40
2018-07-21T15:23:08.143Z,7.90
2018-07-21T15:26:12.468Z,5.73
2018-07-21T15:29:16.814Z,5.13
2018-07-21T15:32:21.133Z,5.97
2018-07-21T15:35:25.421Z,5.33
2018-07-21T15:38:30.524Z,6.67
2018-07-21T15:41:35.014Z,4.33
2018-07-21T15:44:39.277Z,6.87
2018-07-21T15:47:43.703Z,5.77
2018-07-21T15:50:47.985Z,4.53
2018-07-21T15:53:52.402Z,4.20
2018-07-21T15:56:56.759Z,4.70
2018-07-21T16:00:01.153Z,5.27
2018-07-21T16:03:05.300Z,7.33
2018-07-21T16:06:09.664Z,5.83
2018-07-21T16:09:14.132Z,4.93
2018-07-21T16:12:18.579Z,5.20
2018-07-21T16:15:22.975Z,5.17
2018-07-21T16:18:27.309Z,4.80
2018-07-21T16:21:31.610Z,6.87
2018-07-21T16:24:36.000Z,5.53
2018-07-21T16:27:40.442Z,7.63
2018-07-21T16:30:44.792Z,4.80
2018-07-21T16:33:49.215Z,6.63
2018-07-21T16:36:53.723Z,8.47
2018-07-21T16:39:58.154Z,6.57
2018-07-21T16:43:02.577Z,6.87
2018-07-21T16:46:06.868Z,6.07
2018-07-21T16:49:11.089Z,6.43
2018-07-21T16:52:15.380Z,8.20
2018-07-21T16:55:19.712Z,7.43
2018-07-21T16:58:24.187Z,6.23
2018-07-21T17:01:28.790Z,7.90
2018-07-21T17:04:33.268Z,8.00
2018-07-21T17:07:38.065Z,9.60
2018-07-21T17:10:42.844Z,7.87
2018-07-21T17:13:47.429Z,6.80
2018-07-21T17:16:51.963Z,5.77
2018-07-21T17:19:56.394Z,5.77
2018-07-21T17:23:01.135Z,5.17
2018-07-21T17:26:05.751Z,5.27
2018-07-21T17:29:10.429Z,5.63
2018-07-21T17:32:14.826Z,6.37
2018-07-21T17:35:19.119Z,6.53
2018-07-21T17:38:23.451Z,5.67
2018-07-21T17:41:27.964Z,5.97
2018-07-21T17:44:32.297Z,5.33
2018-07-21T17:47:36.652Z,6.07
2018-07-21T17:50:41.051Z,4.77
2018-07-21T17:53:45.410Z,4.73
2018-07-21T17:56:49.697Z,4.83
2018-07-21T17:59:54.063Z,5.23
2018-07-21T18:02:58.465Z,8.20
2018-07-21T18:06:02.809Z,6.10
2018-07-21T18:09:08.668Z,4.70
2018-07-21T18:12:13.004Z,5.87
2018-07-21T18:15:17.371Z,4.43
2018-07-21T18:18:21.759Z,4.77
2018-07-21T18:21:26.691Z,7.23
2018-07-21T18:24:31.080Z,5.20
2018-07-21T18:27:35.527Z,6.63
2018-07-21T18:30:39.910Z,5.03
2018-07-21T18:33:44.298Z,3.57
2018-07-21T18:36:48.599Z,6.23
2018-07-21T18:39:52.958Z,4.57
2018-07-21T18:42:57.290Z,5.13
2018-07-21T18:46:01.690Z,2.93
2018-07-21T18:49:06.266Z,3.17
2018-07-21T18:52:10.692Z,4.07
2018-07-21T18:55:15.029Z,4.60
2018-07-21T18:58:19.745Z,4.17
2018-07-21T19:01:24.142Z,4.73
2018-07-21T19:04:28.556Z,3.80
2018-07-21T19:07:33.178Z,3.67
2018-07-21T19:10:37.497Z,3.47
2018-07-21T19:13:41.974Z,3.20
2018-07-21T19:16:46.384Z,5.43
2018-07-21T19:19:56.272Z,2.53
2018-07-21T19:23:00.548Z,3.53
2018-07-21T19:26:10.210Z,4.53
2018-07-21T19:29:14.628Z,2.40
2018-07-21T19:32:24.391Z,2.17
2018-07-21T19:35:30.457Z,2.60
2018-07-21T19:38:35.855Z,2.77
2018-07-21T19:41:45.378Z,3.20
2018-07-21T19:44:49.867Z,2.90
2018-07-21T19:47:54.396Z,2.80
2018-07-21T19:50:58.972Z,4.13
2018-07-21T19:54:03.496Z,2.70
2018-07-21T19:57:08.016Z,2.20
2018-07-21T20:00:12.542Z,4.03
2018-07-21T20:03:17.224Z,1.60
2018-07-21T20:06:21.591Z,3.50
2018-07-21T20:09:26.027Z,3.77
2018-07-21T20:12:30.542Z,3.27
2018-07-21T20:15:35.322Z,1.90
2018-07-21T20:18:39.820Z,3.93
2018-07-21T20:21:44.236Z,5.13
2018-07-21T20:24:48.710Z,2.23
2018-07-21T20:27:53.125Z,2.53
2018-07-21T20:30:57.517Z,2.13
2018-07-21T20:34:01.842Z,12.67
2018-07-21T20:37:06.215Z,1.97
2018-07-21T20:40:10.663Z,3.70
2018-07-21T20:43:15.085Z,3.33
2018-07-21T20:46:19.452Z,2.60
2018-07-21T20:49:23.837Z,4.10
2018-07-21T20:52:28.171Z,3.60
2018-07-21T20:55:32.611Z,3.60
2018-07-21T20:58:37.029Z,2.77
2018-07-21T21:01:41.359Z,3.70
2018-07-21T21:04:45.780Z,2.90
2018-07-21T21:07:50.187Z,5.23
2018-07-21T21:10:54.634Z,2.50
2018-07-21T21:13:58.946Z,4.10
2018-07-21T21:17:03.377Z,3.10
2018-07-21T21:20:07.727Z,13.23
2018-07-21T21:23:12.105Z,5.50
2018-07-21T21:26:16.515Z,6.03
2018-07-21T21:29:21.601Z,5.23
2018-07-21T21:32:25.927Z,2.50
2018-07-21T21:35:30.379Z,3.50
2018-07-21T21:38:34.806Z,2.90
2018-07-21T21:41:39.198Z,3.93
2018-07-21T21:44:43.633Z,3.33
2018-07-21T21:47:47.816Z,3.63
2018-07-21T21:50:52.194Z,4.77
2018-07-21T21:53:56.681Z,3.63
2018-07-21T21:57:00.887Z,4.27
2018-07-21T22:00:09.083Z,3.47
2018-07-21T22:03:13.557Z,3.67
2018-07-21T22:06:17.979Z,3.60
2018-07-21T22:09:22.374Z,2.70
2018-07-21T22:12:26.850Z,3.27
2018-07-21T22:15:31.317Z,3.17
2018-07-21T22:18:35.780Z,4.03
2018-07-21T22:21:40.216Z,4.03
2018-07-21T22:24:44.854Z,4.17
2018-07-21T22:27:49.341Z,3.97
2018-07-21T22:30:53.864Z,4.23
2018-07-21T22:33:58.970Z,23.17
2018-07-21T22:37:03.406Z,20.50
2018-07-21T22:40:07.858Z,31.83
2018-07-21T22:43:12.262Z,62.80
2018-07-21T22:46:16.724Z,35.43
2018-07-21T22:49:21.157Z,14.63
2018-07-21T22:52:25.560Z,4.77
2018-07-21T22:55:29.986Z,3.53
2018-07-21T22:58:34.401Z,5.20
2018-07-21T23:01:38.883Z,5.70
2018-07-21T23:04:43.308Z,3.93
2018-07-21T23:07:47.728Z,3.87
2018-07-21T23:10:52.125Z,4.17
2018-07-21T23:13:56.639Z,6.33
2018-07-21T23:17:00.965Z,7.07
2018-07-21T23:20:06.612Z,5.00
2018-07-21T23:23:11.028Z,4.10
2018-07-21T23:26:15.473Z,7.00
2018-07-21T23:29:20.025Z,5.13
2018-07-21T23:32:24.460Z,4.83
2018-07-21T23:35:28.916Z,5.33
2018-07-21T23:38:33.336Z,3.17
2018-07-21T23:41:37.693Z,3.43
2018-07-21T23:44:42.115Z,4.63
2018-07-21T23:47:46.424Z,3.80
2018-07-21T23:50:51.065Z,3.27
2018-07-21T23:53:55.386Z,4.50
2018-07-21T23:56:59.735Z,3.57
